Time;durP1;ratioP1;P1;durP2;ratioP2;P2;SDS_P1;SDS_P2;PMS_P1;PMS_P2;Temp;Humidity;BMP_temperature;BMP_pressure;BME280_temperature;BME280_humidity;BME280_pressure;Samples;Min_cycle;Max_cycle;Signal;HPM_P1;HPM_P2
2024/01/21 00:00:19;;;;;;;0.10;0.10;;;;;;;0.14;100.00;101268.53;4230016;28;20295;-67
2024/01/21 00:02:46;;;;;;;0.03;0.03;;;;;;;0.07;100.00;101267.03;4230695;28;22444;-66
2024/01/21 00:05:12;;;;;;;1.40;1.30;;;;;;;-0.07;100.00;101278.19;4227226;28;22502;-67
2024/01/21 00:07:39;;;;;;;2.23;0.63;;;;;;;-0.21;100.00;101273.38;4229713;28;21091;-68
2024/01/21 00:10:08;;;;;;;0.20;0.20;;;;;;;-0.10;100.00;101269.47;4230379;28;20231;-68
2024/01/21 00:12:35;;;;;;;0.10;0.10;;;;;;;-0.13;99.53;101281.09;4226635;28;20241;-66
2024/01/21 00:15:06;;;;;;;2.27;0.50;;;;;;;-0.15;98.19;101277.63;4227312;28;21128;-68
2024/01/21 00:17:32;;;;;;;0.20;0.20;;;;;;;-0.24;98.65;101283.28;4230057;28;23489;-67
2024/01/21 00:19:59;;;;;;;1.10;0.93;;;;;;;-0.30;97.87;101286.16;4223821;28;20257;-67
2024/01/21 00:22:26;;;;;;;0.10;0.10;;;;;;;-0.43;97.26;101283.97;4230481;28;20317;-67
2024/01/21 00:24:52;;;;;;;0.00;0.00;;;;;;;-0.53;97.93;101294.06;4233820;28;22216;-67
2024/01/21 00:27:19;;;;;;;0.10;0.10;;;;;;;-0.72;97.93;101307.16;4233221;28;20230;-68
2024/01/21 00:29:46;;;;;;;0.83;0.83;;;;;;;-0.58;97.45;101306.66;4227315;28;20907;-67
2024/01/21 00:32:12;;;;;;;0.20;0.20;;;;;;;-0.75;97.30;101296.63;4244814;28;20230;-67
2024/01/21 00:34:39;;;;;;;0.10;0.10;;;;;;;-0.91;98.10;101306.94;4228114;28;20676;-66
2024/01/21 00:37:05;;;;;;;0.10;0.10;;;;;;;-0.94;98.17;101312.34;4230355;28;20342;-68
2024/01/21 00:39:33;;;;;;;0.33;0.33;;;;;;;-1.01;98.17;101316.13;4234272;28;20285;-66
2024/01/21 00:42:00;;;;;;;0.10;0.10;;;;;;;-1.15;99.57;101317.44;4225931;28;21116;-68
2024/01/21 00:44:34;;;;;;;0.70;0.70;;;;;;;-1.24;100.00;101325.72;4230209;28;20230;-68
2024/01/21 00:47:01;;;;;;;0.10;0.10;;;;;;;-1.37;100.00;101322.56;4228485;28;20332;-68
2024/01/21 00:49:29;;;;;;;0.10;0.10;;;;;;;-1.48;100.00;101333.53;4242499;28;20227;-67
2024/01/21 00:51:57;;;;;;;0.10;0.10;;;;;;;-1.49;100.00;101334.44;4235097;28;20222;-66
2024/01/21 00:54:23;;;;;;;0.20;0.10;;;;;;;-1.69;100.00;101345.69;4238558;28;23535;-67
2024/01/21 00:56:50;;;;;;;0.20;0.20;;;;;;;-1.75;100.00;101337.91;4228680;28;20439;-68
2024/01/21 00:59:16;;;;;;;0.50;0.37;;;;;;;-1.87;100.00;101351.56;4255469;28;20233;-68
2024/01/21 01:01:43;;;;;;;0.10;0.10;;;;;;;-1.90;100.00;101357.81;4236399;28;20238;-66
2024/01/21 01:04:10;;;;;;;0.00;0.00;;;;;;;-1.92;100.00;101360.50;4240084;28;21918;-67
2024/01/21 01:06:37;;;;;;;0.10;0.10;;;;;;;-1.95;100.00;101355.31;4238104;28;22125;-67
2024/01/21 01:09:07;;;;;;;0.10;0.10;;;;;;;-1.97;100.00;101362.44;4227939;28;20580;-65
2024/01/21 01:11:34;;;;;;;0.10;0.10;;;;;;;-2.10;100.00;101358.38;4240578;28;20231;-66
2024/01/21 01:14:01;;;;;;;0.00;0.00;;;;;;;-2.15;100.00;101363.81;4238843;28;23858;-66
2024/01/21 01:16:27;;;;;;;0.10;0.10;;;;;;;-2.08;100.00;101368.03;4241956;28;21781;-66
2024/01/21 01:18:54;;;;;;;0.37;0.37;;;;;;;-2.17;100.00;101376.25;4239335;28;21050;-68
2024/01/21 01:21:21;;;;;;;0.37;0.33;;;;;;;-2.09;100.00;101373.41;4234193;28;20531;-68
2024/01/21 01:23:47;;;;;;;1.00;0.53;;;;;;;-2.19;100.00;101380.72;4237290;28;20227;-68
2024/01/21 01:26:14;;;;;;;34.53;3.80;;;;;;;-2.28;100.00;101388.94;4234618;28;22042;-69
2024/01/21 01:28:40;;;;;;;1.50;0.80;;;;;;;-2.27;100.00;101396.00;4235594;28;20227;-66
2024/01/21 01:31:20;;;;;;;0.10;0.10;;;;;;;-2.09;100.00;101392.81;4237481;28;21587;-66
2024/01/21 01:33:46;;;;;;;0.00;0.00;;;;;;;-2.07;100.00;101398.09;4226099;28;20314;-66
2024/01/21 01:36:13;;;;;;;0.10;0.10;;;;;;;-2.16;100.00;101395.72;4236709;28;20238;-66
2024/01/21 01:38:40;;;;;;;1.53;1.00;;;;;;;-2.37;100.00;101387.41;4237645;28;20394;-68
2024/01/21 01:41:09;;;;;;;0.10;0.10;;;;;;;-2.30;100.00;101396.06;4236471;28;20233;-66
2024/01/21 01:43:36;;;;;;;0.10;0.10;;;;;;;-2.25;100.00;101394.16;4236212;28;20265;-67
2024/01/21 01:46:03;;;;;;;2.20;1.40;;;;;;;-2.33;100.00;101399.69;4241192;28;20278;-67
2024/01/21 01:48:31;;;;;;;2.77;1.80;;;;;;;-2.44;100.00;101401.72;4243419;28;20308;-69
2024/01/21 01:50:59;;;;;;;0.10;0.10;;;;;;;-2.53;100.00;101408.16;4239283;28;21597;-66
2024/01/21 01:53:28;;;;;;;0.10;0.10;;;;;;;-2.57;100.00;101412.66;4239103;28;20246;-67
2024/01/21 01:55:55;;;;;;;0.00;0.00;;;;;;;-2.60;100.00;101411.88;4231708;28;20322;-67
2024/01/21 01:58:26;;;;;;;0.10;0.10;;;;;;;-2.58;100.00;101413.56;4236218;28;20226;-68
2024/01/21 02:00:53;;;;;;;0.10;0.10;;;;;;;-2.53;100.00;101418.75;4227831;28;20631;-67
2024/01/21 02:03:23;;;;;;;0.00;0.00;;;;;;;-2.59;100.00;101425.06;4234064;28;21329;-66
2024/01/21 02:05:50;;;;;;;0.10;0.10;;;;;;;-2.73;100.00;101430.75;4228812;28;20242;-67
2024/01/21 02:08:17;;;;;;;0.00;0.00;;;;;;;-2.81;100.00;101432.69;4234869;28;20570;-66
2024/01/21 02:10:43;;;;;;;0.63;0.63;;;;;;;-2.90;100.00;101432.91;4237832;28;20664;-67
2024/01/21 02:13:10;;;;;;;0.00;0.00;;;;;;;-2.98;100.00;101437.53;4231016;28;20361;-69
2024/01/21 02:15:37;;;;;;;0.37;0.37;;;;;;;-3.06;100.00;101433.28;4232784;28;22001;-67
2024/01/21 02:18:04;;;;;;;0.40;0.40;;;;;;;-3.14;100.00;101434.38;4240131;28;20570;-65
2024/01/21 02:20:30;;;;;;;0.10;0.10;;;;;;;-3.22;100.00;101440.72;4240349;28;20225;-67
2024/01/21 02:22:58;;;;;;;0.10;0.10;;;;;;;-3.25;100.00;101442.56;4243514;28;20239;-66
2024/01/21 02:25:24;;;;;;;0.10;0.10;;;;;;;-3.33;100.00;101448.00;4238352;28;21754;-67
2024/01/21 02:27:51;;;;;;;0.10;0.10;;;;;;;-3.36;100.00;101448.09;4241636;28;20230;-66
2024/01/21 02:30:18;;;;;;;0.00;0.00;;;;;;;-3.46;100.00;101447.38;4236952;28;20229;-66
2024/01/21 02:32:44;;;;;;;0.00;0.00;;;;;;;-3.51;100.00;101457.22;4245965;28;20298;-65
2024/01/21 02:35:11;;;;;;;0.10;0.10;;;;;;;-3.45;100.00;101459.72;4240524;28;20217;-67
2024/01/21 02:37:37;;;;;;;0.00;0.00;;;;;;;-3.47;100.00;101472.13;4241466;28;20284;-65
2024/01/21 02:40:05;;;;;;;0.10;0.10;;;;;;;-3.51;100.00;101471.31;4242543;28;21604;-67
2024/01/21 02:42:31;;;;;;;0.07;0.07;;;;;;;-3.35;100.00;101461.28;4231792;28;20230;-70
2024/01/21 02:44:58;;;;;;;0.10;0.10;;;;;;;-3.42;100.00;101466.72;4240813;28;20229;-66
2024/01/21 02:47:25;;;;;;;0.10;0.10;;;;;;;-3.67;100.00;101465.47;4243027;28;20270;-67
2024/01/21 02:49:51;;;;;;;0.10;0.10;;;;;;;-3.64;100.00;101463.66;4240208;28;20238;-67
2024/01/21 02:52:18;;;;;;;0.10;0.10;;;;;;;-3.62;100.00;101470.66;4220470;28;20355;-64
2024/01/21 02:54:45;;;;;;;0.40;0.40;;;;;;;-3.76;100.00;101470.09;4246967;28;20295;-66
2024/01/21 02:57:12;;;;;;;0.10;0.10;;;;;;;-3.93;100.00;101471.28;4238801;28;20538;-66
2024/01/21 02:59:39;;;;;;;0.10;0.10;;;;;;;-4.02;100.00;101482.91;4230389;28;20567;-66
2024/01/21 03:02:05;;;;;;;0.10;0.10;;;;;;;-4.14;100.00;101488.41;4245516;28;20627;-66
2024/01/21 03:04:32;;;;;;;0.47;0.47;;;;;;;-4.17;100.00;101485.81;4241725;28;20245;-66
2024/01/21 03:06:58;;;;;;;0.10;0.10;;;;;;;-4.20;100.00;101489.41;4241479;28;24799;-66
2024/01/21 03:09:25;;;;;;;0.10;0.10;;;;;;;-4.19;100.00;101482.31;4242020;28;20238;-65
2024/01/21 03:11:51;;;;;;;0.10;0.10;;;;;;;-4.12;100.00;101485.75;4241345;28;20238;-66
2024/01/21 03:14:18;;;;;;;0.00;0.00;;;;;;;-4.10;100.00;101468.94;4243619;28;20796;-67
2024/01/21 03:16:44;;;;;;;0.00;0.00;;;;;;;-4.11;100.00;101482.19;4245516;28;20238;-68
2024/01/21 03:19:11;;;;;;;0.00;0.00;;;;;;;-4.11;100.00;101471.59;4250151;28;20650;-66
2024/01/21 03:21:38;;;;;;;0.00;0.00;;;;;;;-4.19;100.00;101469.97;4230427;28;22301;-69
2024/01/21 03:24:05;;;;;;;0.10;0.10;;;;;;;-4.31;100.00;101473.72;4241291;28;20570;-68
2024/01/21 03:26:32;;;;;;;0.10;0.10;;;;;;;-4.26;100.00;101483.34;4246453;28;20334;-69
2024/01/21 03:28:58;;;;;;;0.10;0.10;;;;;;;-4.33;100.00;101494.03;4246452;28;20644;-69
2024/01/21 03:31:25;;;;;;;0.00;0.00;;;;;;;-4.40;100.00;101502.94;4244873;28;23493;-67
2024/01/21 03:33:51;;;;;;;0.10;0.10;;;;;;;-4.37;100.00;101494.94;4243288;28;20241;-66
2024/01/21 03:36:18;;;;;;;0.10;0.10;;;;;;;-4.44;100.00;101506.53;4234136;28;21107;-65
2024/01/21 03:38:46;;;;;;;0.10;0.10;;;;;;;-4.50;100.00;101504.88;4244706;28;20639;-67
2024/01/21 03:41:13;;;;;;;0.10;0.10;;;;;;;-4.51;100.00;101505.78;4246710;28;20238;-67
2024/01/21 03:43:40;;;;;;;0.10;0.10;;;;;;;-4.60;100.00;101505.91;4245291;28;20367;-67
2024/01/21 03:46:06;;;;;;;0.00;0.00;;;;;;;-4.59;100.00;101501.47;4257912;28;20264;-66
2024/01/21 03:48:33;;;;;;;0.10;0.10;;;;;;;-4.56;100.00;101518.16;4244450;28;20675;-65
2024/01/21 03:51:01;;;;;;;0.10;0.10;;;;;;;-4.57;100.00;101520.84;4240920;28;21800;-65
2024/01/21 03:53:28;;;;;;;0.00;0.00;;;;;;;-4.53;100.00;101518.13;4244984;28;20250;-68
2024/01/21 03:55:55;;;;;;;0.10;0.10;;;;;;;-4.34;100.00;101528.38;4243011;28;20748;-65
2024/01/21 03:58:21;;;;;;;0.10;0.10;;;;;;;-4.21;100.00;101523.78;4250988;28;20586;-68
2024/01/21 04:00:48;;;;;;;0.10;0.10;;;;;;;-4.22;100.00;101530.84;4239890;28;21578;-67
2024/01/21 04:03:14;;;;;;;0.10;0.10;;;;;;;-4.43;100.00;101526.78;4233192;28;20238;-67
2024/01/21 04:05:41;;;;;;;0.10;0.10;;;;;;;-4.46;100.00;101524.19;4228573;28;20607;-67
2024/01/21 04:08:08;;;;;;;0.10;0.10;;;;;;;-4.46;100.00;101513.63;4245426;28;20944;-67
2024/01/21 04:10:36;;;;;;;0.10;0.10;;;;;;;-4.53;100.00;101525.19;4243790;28;20249;-66
2024/01/21 04:13:03;;;;;;;0.00;0.00;;;;;;;-4.47;100.00;101525.97;4245586;28;20352;-66
2024/01/21 04:15:29;;;;;;;0.00;0.00;;;;;;;-4.54;100.00;101534.03;4244813;28;20234;-65
2024/01/21 04:17:56;;;;;;;0.10;0.10;;;;;;;-4.27;100.00;101527.41;4242123;28;20530;-65
2024/01/21 04:20:22;;;;;;;0.10;0.10;;;;;;;-4.26;100.00;101530.94;4241659;28;20245;-68
2024/01/21 04:22:49;;;;;;;0.10;0.10;;;;;;;-4.54;100.00;101532.22;4250113;28;20291;-66
2024/01/21 04:25:15;;;;;;;0.00;0.00;;;;;;;-4.65;100.00;101515.69;4240909;28;20245;-65
2024/01/21 04:27:42;;;;;;;0.10;0.10;;;;;;;-4.57;100.00;101526.13;4250556;28;22211;-65
2024/01/21 04:30:09;;;;;;;0.10;0.10;;;;;;;-4.60;100.00;101527.06;4241462;28;20282;-67
2024/01/21 04:32:36;;;;;;;0.10;0.10;;;;;;;-4.60;100.00;101532.34;4245221;28;23629;-65
2024/01/21 04:35:04;;;;;;;0.10;0.10;;;;;;;-4.58;100.00;101540.22;4248208;28;20311;-68
2024/01/21 04:37:30;;;;;;;0.10;0.10;;;;;;;-4.55;100.00;101534.91;4241997;28;20671;-65
2024/01/21 04:39:57;;;;;;;0.10;0.10;;;;;;;-4.74;100.00;101542.25;4240293;28;21955;-66
2024/01/21 04:42:23;;;;;;;0.00;0.00;;;;;;;-4.75;100.00;101535.22;4248691;28;20308;-65
2024/01/21 04:44:50;;;;;;;0.10;0.10;;;;;;;-4.62;100.00;101536.75;4233690;28;20242;-67
2024/01/21 04:47:17;;;;;;;0.10;0.10;;;;;;;-4.67;100.00;101535.97;4253414;28;20737;-69
2024/01/21 04:49:43;;;;;;;0.00;0.00;;;;;;;-4.41;100.00;101532.91;4246936;28;20703;-69
2024/01/21 04:52:10;;;;;;;0.10;0.10;;;;;;;-4.51;100.00;101537.50;4239418;28;20552;-66
2024/01/21 04:54:37;;;;;;;0.00;0.00;;;;;;;-4.43;100.00;101533.84;4247694;28;21259;-67
2024/01/21 04:57:04;;;;;;;2.53;1.47;;;;;;;-4.31;100.00;101538.94;4240508;28;20226;-66
2024/01/21 04:59:30;;;;;;;0.10;0.10;;;;;;;-4.15;100.00;101537.78;4238589;28;20580;-66
2024/01/21 05:02:00;;;;;;;0.10;0.10;;;;;;;-4.41;100.00;101548.78;4245389;28;22560;-66
2024/01/21 05:04:26;;;;;;;0.10;0.10;;;;;;;-4.64;100.00;101546.47;4254099;28;20287;-66
2024/01/21 05:06:53;;;;;;;2.00;0.30;;;;;;;-4.74;100.00;101550.16;4244195;28;20304;-67
2024/01/21 05:09:19;;;;;;;0.47;0.47;;;;;;;-5.41;100.00;101548.38;4244723;28;23561;-66
2024/01/21 05:11:46;;;;;;;2.63;0.97;;;;;;;-5.54;100.00;101559.97;4246012;28;20369;-65
2024/01/21 05:14:13;;;;;;;0.10;0.10;;;;;;;-5.60;100.00;101563.53;4250919;28;20242;-66
2024/01/21 05:16:40;;;;;;;0.10;0.10;;;;;;;-5.69;100.00;101567.16;4236359;28;20661;-66
2024/01/21 05:19:06;;;;;;;0.10;0.10;;;;;;;-5.73;100.00;101568.06;4242887;28;20236;-65
2024/01/21 05:21:33;;;;;;;0.10;0.10;;;;;;;-5.53;100.00;101569.63;4236466;28;20234;-67
2024/01/21 05:24:00;;;;;;;0.10;0.10;;;;;;;-5.23;100.00;101570.16;4243427;28;20276;-63
2024/01/21 05:26:26;;;;;;;1.50;1.17;;;;;;;-5.09;100.00;101566.44;4243591;28;20236;-65
2024/01/21 05:28:55;;;;;;;0.23;0.23;;;;;;;-5.07;100.00;101570.84;4243874;28;20767;-67
2024/01/21 05:31:21;;;;;;;0.10;0.10;;;;;;;-5.25;100.00;101578.13;4244271;28;20238;-65
2024/01/21 05:33:48;;;;;;;0.50;0.50;;;;;;;-4.93;100.00;101582.09;4247484;28;21737;-68
2024/01/21 05:36:15;;;;;;;1.33;1.30;;;;;;;-4.98;100.00;101584.78;4243352;28;21047;-67
2024/01/21 05:38:41;;;;;;;0.10;0.10;;;;;;;-4.64;100.00;101579.06;4247952;28;21669;-65
2024/01/21 05:41:12;;;;;;;0.20;0.20;;;;;;;-4.49;100.00;101567.38;4245796;28;20272;-66
2024/01/21 05:43:38;;;;;;;0.10;0.10;;;;;;;-4.41;100.00;101579.59;4242930;28;20253;-68
2024/01/21 05:46:05;;;;;;;0.10;0.10;;;;;;;-4.66;100.00;101580.84;4242176;28;20284;-67
2024/01/21 05:48:31;;;;;;;0.00;0.00;;;;;;;-4.85;100.00;101593.44;4257635;28;20243;-66
2024/01/21 05:50:58;;;;;;;0.10;0.10;;;;;;;-4.99;100.00;101588.34;4245681;28;21127;-65
2024/01/21 05:53:24;;;;;;;0.33;0.33;;;;;;;-5.10;100.00;101583.19;4245617;28;20230;-65
2024/01/21 05:55:51;;;;;;;0.10;0.10;;;;;;;-5.07;100.00;101589.31;4241655;28;25482;-64
2024/01/21 05:58:18;;;;;;;0.07;0.07;;;;;;;-5.17;100.00;101594.72;4255370;28;20240;-66
2024/01/21 06:00:44;;;;;;;0.10;0.10;;;;;;;-4.94;100.00;101591.81;4220255;28;20238;-65
2024/01/21 06:03:11;;;;;;;0.10;0.10;;;;;;;-4.52;100.00;101596.53;4247049;28;20405;-64
2024/01/21 06:05:38;;;;;;;0.00;0.00;;;;;;;-4.51;100.00;101595.63;4237210;28;20222;-67
2024/01/21 06:08:05;;;;;;;0.10;0.10;;;;;;;-4.77;100.00;101602.13;4250959;28;20404;-65
2024/01/21 06:10:31;;;;;;;0.00;0.00;;;;;;;-4.94;100.00;101601.47;4245023;28;20766;-66
2024/01/21 06:12:58;;;;;;;0.10;0.10;;;;;;;-4.80;100.00;101601.31;4214693;28;20239;-66
2024/01/21 06:15:24;;;;;;;0.17;0.17;;;;;;;-4.61;100.00;101596.66;4247519;28;20686;-66
2024/01/21 06:17:51;;;;;;;0.10;0.10;;;;;;;-4.47;100.00;101599.97;4241316;28;20487;-68
2024/01/21 06:20:18;;;;;;;0.10;0.10;;;;;;;-4.25;100.00;101599.63;4239928;28;20609;-68
2024/01/21 06:22:44;;;;;;;2.63;2.53;;;;;;;-4.33;100.00;101604.16;4238243;28;20225;-66
2024/01/21 06:25:14;;;;;;;0.10;0.10;;;;;;;-4.52;100.00;101603.56;4244021;28;20299;-65
2024/01/21 06:27:40;;;;;;;0.10;0.10;;;;;;;-4.55;100.00;101608.91;4245269;28;20242;-62
2024/01/21 06:30:14;;;;;;;0.10;0.10;;;;;;;-4.36;100.00;101607.72;4238336;28;20229;-66
2024/01/21 06:32:41;;;;;;;0.10;0.10;;;;;;;-4.11;100.00;101610.00;4255400;28;20335;-68
2024/01/21 06:35:22;;;;;;;0.10;0.10;;;;;;;-4.00;100.00;101621.25;4244614;28;20226;-65
2024/01/21 06:37:49;;;;;;;0.10;0.10;;;;;;;-3.95;100.00;101615.03;4248191;28;20287;-66
2024/01/21 06:40:16;;;;;;;0.10;0.10;;;;;;;-4.19;100.00;101625.09;4253258;28;20499;-66
2024/01/21 06:42:43;;;;;;;0.10;0.10;;;;;;;-4.34;100.00;101626.19;4247418;28;20230;-65
2024/01/21 06:45:13;;;;;;;0.10;0.10;;;;;;;-4.37;100.00;101628.91;4239499;28;20309;-67
2024/01/21 06:47:40;;;;;;;0.10;0.10;;;;;;;-4.43;100.00;101623.72;4251768;28;20284;-65
2024/01/21 06:50:09;;;;;;;0.10;0.10;;;;;;;-4.21;100.00;101624.25;4258271;28;23172;-67
2024/01/21 06:52:36;;;;;;;0.07;0.07;;;;;;;-3.73;100.00;101623.47;4242477;28;20239;-67
2024/01/21 06:55:03;;;;;;;0.10;0.10;;;;;;;-3.64;100.00;101627.75;4245756;28;22345;-67
2024/01/21 06:57:30;;;;;;;0.10;0.10;;;;;;;-3.67;100.00;101634.84;4259125;28;20637;-69
2024/01/21 06:59:57;;;;;;;0.10;0.10;;;;;;;-3.77;100.00;101638.53;4245409;28;20324;-69
2024/01/21 07:02:25;;;;;;;0.10;0.10;;;;;;;-3.71;100.00;101645.50;4232852;28;20232;-72
2024/01/21 07:04:52;;;;;;;0.10;0.10;;;;;;;-3.47;100.00;101653.91;4263709;28;21164;-68
2024/01/21 07:07:18;;;;;;;0.13;0.13;;;;;;;-3.16;100.00;101648.06;4235403;28;20841;-69
2024/01/21 07:09:45;;;;;;;0.10;0.10;;;;;;;-3.09;100.00;101647.88;4244382;28;20236;-71
2024/01/21 07:12:12;;;;;;;0.10;0.10;;;;;;;-3.22;100.00;101649.94;4240727;28;25711;-70
2024/01/21 07:14:39;;;;;;;0.20;0.20;;;;;;;-3.21;100.00;101649.00;4242132;28;22437;-67
2024/01/21 07:17:06;;;;;;;0.00;0.00;;;;;;;-2.83;100.00;101657.09;4241860;28;20408;-68
2024/01/21 07:19:33;;;;;;;0.63;0.63;;;;;;;-2.80;100.00;101654.41;4244681;28;21145;-69
2024/01/21 07:22:00;;;;;;;0.10;0.10;;;;;;;-2.75;100.00;101657.81;4240310;28;20247;-68
2024/01/21 07:24:26;;;;;;;2.30;2.20;;;;;;;-2.67;100.00;101660.31;4247297;28;20240;-69
2024/01/21 07:26:53;;;;;;;0.10;0.10;;;;;;;-2.59;100.00;101655.72;4243762;28;20234;-70
2024/01/21 07:29:20;;;;;;;0.20;0.20;;;;;;;-2.46;100.00;101656.31;4248789;28;21613;-72
2024/01/21 07:31:46;;;;;;;4.80;3.47;;;;;;;-2.33;100.00;101648.97;4241457;28;20226;-70
2024/01/21 07:34:13;;;;;;;7.50;1.07;;;;;;;-2.37;100.00;101663.19;4236348;28;20230;-69
2024/01/21 07:36:40;;;;;;;3.40;2.00;;;;;;;-2.21;100.00;101661.09;4252641;28;20239;-70
2024/01/21 07:39:07;;;;;;;0.20;0.20;;;;;;;-2.03;100.00;101667.75;4241524;28;20280;-70
2024/01/21 07:41:33;;;;;;;0.10;0.10;;;;;;;-1.88;100.00;101658.53;4248134;28;20237;-70
2024/01/21 07:44:00;;;;;;;0.10;0.10;;;;;;;-1.95;100.00;101656.94;4255607;28;20226;-71
2024/01/21 07:46:26;;;;;;;0.20;0.20;;;;;;;-1.70;100.00;101654.53;4269624;28;20452;-68
2024/01/21 07:48:53;;;;;;;0.00;0.00;;;;;;;-1.49;100.00;101654.94;4243932;28;20231;-67
2024/01/21 07:51:20;;;;;;;0.10;0.10;;;;;;;-1.37;100.00;101662.56;4246882;28;20752;-69
2024/01/21 07:53:47;;;;;;;0.10;0.10;;;;;;;-1.25;100.00;101665.81;4253097;28;22776;-70
2024/01/21 07:56:14;;;;;;;0.40;0.40;;;;;;;-1.14;100.00;101669.94;4255791;28;20228;-71
2024/01/21 07:58:40;;;;;;;0.10;0.10;;;;;;;-0.97;100.00;101674.78;4247023;28;20451;-69
2024/01/21 08:01:11;;;;;;;0.00;0.00;;;;;;;-0.87;100.00;101674.53;4246470;28;20243;-74
2024/01/21 08:03:39;;;;;;;0.10;0.10;;;;;;;-0.84;100.00;101679.75;4244820;28;20263;-75
2024/01/21 08:06:09;;;;;;;0.10;0.10;;;;;;;-0.80;100.00;101674.31;4231213;28;21731;-73
2024/01/21 08:08:36;;;;;;;0.10;0.10;;;;;;;-0.75;100.00;101683.91;4247086;28;22844;-71
2024/01/21 08:11:03;;;;;;;0.10;0.10;;;;;;;-0.54;100.00;101685.09;4247708;28;21161;-72
2024/01/21 08:13:30;;;;;;;0.10;0.10;;;;;;;-0.53;100.00;101687.69;4250825;28;20524;-71
2024/01/21 08:15:57;;;;;;;0.10;0.10;;;;;;;-0.65;99.73;101683.63;4253066;28;20241;-68
2024/01/21 08:18:24;;;;;;;0.20;0.20;;;;;;;-0.77;99.69;101691.94;4240360;28;20553;-69
2024/01/21 08:20:51;;;;;;;1.23;0.93;;;;;;;-0.66;100.00;101692.53;4239320;28;21811;-68
2024/01/21 08:23:19;;;;;;;0.00;0.00;;;;;;;-0.56;100.00;101697.56;4284972;28;20239;-70
2024/01/21 08:25:46;;;;;;;4.93;1.77;;;;;;;-0.80;100.00;101694.72;4246770;28;23449;-73
2024/01/21 08:28:13;;;;;;;0.10;0.10;;;;;;;-0.60;100.00;101686.13;4255858;28;20226;-72
2024/01/21 08:30:40;;;;;;;0.20;0.20;;;;;;;-0.42;100.00;101691.84;4237810;28;20239;-71
2024/01/21 08:33:07;;;;;;;0.40;0.40;;;;;;;-0.51;100.00;101688.53;4250718;28;20314;-72
2024/01/21 08:35:34;;;;;;;0.23;0.23;;;;;;;-0.35;99.32;101683.66;4252286;28;20423;-71
2024/01/21 08:38:01;;;;;;;4.00;1.73;;;;;;;0.01;99.29;101682.53;4254551;28;20304;-72
2024/01/21 08:40:28;;;;;;;0.20;0.20;;;;;;;0.62;96.99;101682.31;4264809;28;20376;-68
2024/01/21 08:42:54;;;;;;;8.40;0.60;;;;;;;1.58;91.89;101680.69;4268548;28;20229;-71
2024/01/21 08:45:21;;;;;;;0.20;0.20;;;;;;;3.90;86.52;101673.41;4263167;28;20907;-69
2024/01/21 08:47:48;;;;;;;0.50;0.50;;;;;;;5.53;71.04;101679.41;4237699;28;21807;-67
2024/01/21 08:50:15;;;;;;;0.00;0.00;;;;;;;6.94;67.43;101673.22;4261493;28;20241;-71
2024/01/21 08:52:41;;;;;;;2.77;2.10;;;;;;;6.08;65.49;101673.78;4245889;28;22294;-69
2024/01/21 08:55:08;;;;;;;0.00;0.00;;;;;;;5.71;67.34;101682.03;4220764;28;20629;-68
2024/01/21 08:57:36;;;;;;;0.33;0.30;;;;;;;6.12;65.29;101680.69;4249582;28;20238;-66
2024/01/21 09:00:05;;;;;;;0.00;0.00;;;;;;;6.97;63.90;101690.06;4296713;28;21092;-72
2024/01/21 09:02:31;;;;;;;0.20;0.20;;;;;;;7.43;61.30;101697.09;4253337;28;20242;-68
2024/01/21 09:04:58;;;;;;;0.00;0.00;;;;;;;9.11;55.99;101683.50;4262662;28;20375;-68
2024/01/21 09:07:25;;;;;;;0.40;0.40;;;;;;;10.31;51.99;101693.75;4253280;28;20398;-67
2024/01/21 09:09:52;;;;;;;0.00;0.00;;;;;;;12.31;48.10;101699.03;4267425;28;20241;-68
2024/01/21 09:12:19;;;;;;;0.63;0.63;;;;;;;12.58;44.88;101684.94;4248157;28;21294;-70
2024/01/21 09:14:45;;;;;;;12.37;4.03;;;;;;;10.91;47.79;101687.53;4250979;28;21072;-72
2024/01/21 09:17:12;;;;;;;4.10;1.10;;;;;;;11.61;45.74;101688.34;4255851;28;20221;-70
2024/01/21 09:19:39;;;;;;;0.20;0.20;;;;;;;12.08;45.13;101687.34;4259567;28;21568;-69
2024/01/21 09:22:05;;;;;;;0.10;0.10;;;;;;;12.11;45.22;101690.66;4259818;28;20381;-69
2024/01/21 09:24:32;;;;;;;4.27;3.77;;;;;;;10.99;46.76;101690.47;4245503;28;20640;-71
2024/01/21 09:26:59;;;;;;;1.87;1.10;;;;;;;8.47;53.29;101690.50;4258027;28;20365;-70
2024/01/21 09:29:25;;;;;;;0.40;0.40;;;;;;;7.11;57.70;101689.19;4247825;28;20852;-70
2024/01/21 09:31:55;;;;;;;1.23;1.13;;;;;;;6.21;61.68;101685.56;4249524;28;20234;-69
2024/01/21 09:34:22;;;;;;;2.00;0.60;;;;;;;5.51;64.61;101672.41;4251974;28;20554;-71
2024/01/21 09:36:50;;;;;;;1.70;1.60;;;;;;;4.24;70.44;101682.47;4271073;28;20315;-68
2024/01/21 09:39:18;;;;;;;0.20;0.20;;;;;;;4.13;71.37;101679.47;4260074;28;20349;-69
2024/01/21 09:41:52;;;;;;;0.73;0.67;;;;;;;3.90;72.95;101675.22;4250864;28;20230;-68
2024/01/21 09:44:20;;;;;;;0.40;0.37;;;;;;;3.44;75.73;101689.81;4241745;28;21859;-68
2024/01/21 09:46:55;;;;;;;0.13;0.13;;;;;;;3.15;76.48;101684.00;4246930;28;20250;-68
2024/01/21 09:49:22;;;;;;;0.07;0.07;;;;;;;2.96;78.51;101681.25;4246642;28;20238;-64
2024/01/21 09:51:50;;;;;;;0.20;0.20;;;;;;;2.72;79.95;101675.19;4249962;28;22308;-69
2024/01/21 09:54:18;;;;;;;0.10;0.10;;;;;;;2.83;79.68;101680.91;4253497;28;20237;-68
2024/01/21 09:56:45;;;;;;;6.80;6.13;;;;;;;2.62;81.00;101680.06;4243841;28;20230;-69
2024/01/21 09:59:12;;;;;;;3.53;0.77;;;;;;;2.41;82.50;101683.63;4257679;28;21676;-68
2024/01/21 10:01:40;;;;;;;0.00;0.00;;;;;;;2.38;82.67;101676.59;4249635;28;20410;-69
2024/01/21 10:04:12;;;;;;;0.47;0.47;;;;;;;2.36;83.11;101682.00;4243818;28;20276;-67
2024/01/21 10:06:39;;;;;;;1.23;0.77;;;;;;;2.37;83.27;101691.78;4231301;28;21908;-67
2024/01/21 10:09:22;;;;;;;0.00;0.00;;;;;;;2.21;84.20;101674.63;4259856;28;21501;-69
2024/01/21 10:11:53;;;;;;;0.63;0.63;;;;;;;1.76;85.99;101672.88;4256781;28;21088;-68
2024/01/21 10:14:20;;;;;;;0.90;0.20;;;;;;;1.83;87.08;101680.59;4243349;28;23624;-65
2024/01/21 10:16:47;;;;;;;1.27;1.03;;;;;;;1.81;87.51;101673.56;4263710;28;20316;-68
2024/01/21 10:19:14;;;;;;;0.50;0.50;;;;;;;1.88;87.07;101661.72;4270450;28;20233;-65
2024/01/21 10:21:42;;;;;;;0.20;0.20;;;;;;;1.89;87.41;101658.09;4243891;28;20320;-66
2024/01/21 10:24:13;;;;;;;4.87;1.87;;;;;;;1.96;86.87;101656.06;4230846;28;25528;-70
2024/01/21 10:26:43;;;;;;;10.20;2.63;;;;;;;1.76;87.98;101659.50;4248796;28;21147;-65
2024/01/21 10:29:09;;;;;;;0.47;0.37;;;;;;;1.71;87.92;101667.69;4244704;28;20292;-67
2024/01/21 10:31:36;;;;;;;2.00;1.30;;;;;;;1.77;87.57;101661.25;4250331;28;21728;-65
2024/01/21 10:34:03;;;;;;;4.17;2.63;;;;;;;1.85;87.14;101660.00;4241324;28;25068;-66
2024/01/21 10:36:33;;;;;;;2.43;1.23;;;;;;;1.73;87.95;101661.41;4260226;28;20488;-67
2024/01/21 10:39:04;;;;;;;0.20;0.20;;;;;;;1.71;88.02;101655.25;4241215;28;20232;-66
2024/01/21 10:41:32;;;;;;;6.03;2.73;;;;;;;1.61;88.77;101658.34;4243803;28;21760;-67
2024/01/21 10:44:03;;;;;;;1.40;1.40;;;;;;;1.49;89.35;101660.53;4234117;28;20279;-65
2024/01/21 10:46:34;;;;;;;0.57;0.57;;;;;;;1.62;88.78;101658.25;4258569;28;22372;-67
2024/01/21 10:49:03;;;;;;;7.90;3.17;;;;;;;1.35;89.90;101655.72;4232474;28;20304;-65
2024/01/21 10:51:29;;;;;;;0.73;0.73;;;;;;;1.35;90.80;101661.06;4246854;28;21475;-65
2024/01/21 10:53:59;;;;;;;4.70;4.23;;;;;;;1.36;90.24;101657.44;4255743;28;20238;-68
2024/01/21 10:56:26;;;;;;;3.80;1.17;;;;;;;1.40;90.65;101652.88;4270658;28;20365;-66
2024/01/21 10:58:54;;;;;;;8.03;0.97;;;;;;;1.60;89.66;101667.25;4250954;28;21774;-66
2024/01/21 11:01:24;;;;;;;0.10;0.10;;;;;;;1.63;89.53;101659.13;4242370;28;20345;-64
2024/01/21 11:04:03;;;;;;;1.20;1.13;;;;;;;1.53;89.85;101654.16;4252892;28;20236;-65
2024/01/21 11:06:31;;;;;;;15.10;6.07;;;;;;;1.33;90.38;101652.25;4258023;28;20443;-67
2024/01/21 11:09:00;;;;;;;2.07;1.40;;;;;;;1.51;89.90;101657.81;4258094;28;24967;-66
2024/01/21 11:11:27;;;;;;;0.10;0.10;;;;;;;1.63;89.45;101665.34;4256065;28;20592;-69
2024/01/21 11:13:54;;;;;;;1.17;0.83;;;;;;;1.77;89.06;101664.81;4236236;28;22061;-65
2024/01/21 11:16:30;;;;;;;0.40;0.40;;;;;;;1.85;88.82;101664.50;4253655;28;20234;-66
2024/01/21 11:19:05;;;;;;;7.17;2.27;;;;;;;1.70;88.80;101664.19;4243565;28;21170;-65
2024/01/21 11:21:36;;;;;;;12.63;6.00;;;;;;;1.61;89.14;101661.84;4232791;28;20234;-65